Terminal Aerodrome Forecast
Issued by NWS Louisville, KY

Home | Current Version | Previous Version | Text Only | Print | Product List | Glossary On
Versions: 1 2 3 4 5 6 7 8 9 10 11 12 13 14 15 16 17 18 19 20 21 22 23 24 25
772
FTUS43 KLMK 160849 AAA
TAFLEX
TAF AMD
KLEX 160849Z 1609/1706 11004KT P6SM OVC004
     FM161200 11004KT 4SM BR OVC003
     FM161600 13006KT 4SM BR OVC008
     FM161900 17006KT P6SM BKN021
     FM162200 16007KT P6SM VCSH BKN035=

USA.gov is the U.S. government's official web portal to all federal, state and local government web resources and services.